• Join FlightAware (Why Join?)
  • Login
  • US Flag 
10:06PM EDT


 

Airport Tracker/Info


-or-


 

Live Flight TrackerFlight Track Log ✈ ASQ4577 ✈ 11-Jul-2013 ✈ KCLE - KALB

Flight Track Log - Related Links

Times and Time Zones

All times are in EDT time to prevent confusion due to time zone crossing. See the ASQ4577 flight status page for this flight to view local times or setup timezone preferences in your user account.

Time Position Orientation Groundspeed Altitude Reporting Facility
EDT Latitude Longitude Course Direction KTS MPH feet Rate Location/Type
07:18PM 41.4172 -81.8375 29° Northeast 169 194 1,700  Level Cleveland Center
07:20PM 41.5056 -81.7725 29° Northeast 211 243 5,600 2,220 Climbing Cleveland Center
07:21PM 41.5625 -81.7153 37° Northeast 238 274 7,900 2,160 Climbing Cleveland Center
07:22PM 41.6172 -81.6581 38° Northeast 261 300 10,000 1,440 Climbing Cleveland Center
07:23PM 41.6844 -81.5869 38° Northeast 289 333 10,800 960 Climbing Cleveland Center
07:24PM 41.7625 -81.5017 39° Northeast 339 390 12,000 1,380 Climbing Cleveland Center
07:25PM 41.8361 -81.4025 45° Northeast 363 418 13,600 1,560 Climbing Cleveland Center
07:26PM 41.8619 -81.2661 76° East 358 412 15,200 1,500 Climbing Cleveland Center
07:27PM 41.8878 -81.1158 77° East 365 420 16,700 1,440 Climbing Cleveland Center
07:28PM 41.9072 -80.9767 79° East 372 428 18,100 1,380 Climbing Cleveland Center
07:29PM 41.9306 -80.8372 77° East 377 434 19,500 1,380 Climbing Cleveland Center
07:30PM 41.9536 -80.6947 78° East 384 442 20,900 1,380 Climbing Cleveland Center
07:31PM 41.9767 -80.5414 79° East 398 458 22,300 1,440 Climbing Cleveland Center
07:32PM 42.0014 -80.3931 77° East 405 466 23,800 1,380 Climbing Cleveland Center
07:33PM 42.0242 -80.2422 78° East 412 474 25,200 1,380 Climbing Cleveland Center
07:34PM 42.0486 -80.0883 78° East 412 474 26,600 1,260 Climbing Cleveland Center
07:35PM 42.0686 -79.9483 79° East 412 474 27,800 660 Climbing Cleveland Center
07:36PM 42.0928 -79.7914 78° East 419 482 28,000 480 Climbing Cleveland Center
07:37PM 42.1164 -79.6258 79° East 434 499 28,800 480 Climbing Cleveland Center
07:38PM 42.1422 -79.4575 78° East 439 505 29,000 60 Climbing Cleveland Center
07:39PM 42.1672 -79.2778 79° East 462 532 29,000  Level Cleveland Center
07:40PM 42.1900 -79.0978 80° East 474 545 29,100 540 Climbing Cleveland Center
07:41PM 42.2128 -78.9181 80° East 486 559 30,100 900 Climbing Cleveland Center
07:42PM 42.2392 -78.7433 78° East 481 554 31,000 420 Climbing Cleveland Center
07:43PM 42.2611 -78.5631 81° East 481 554 31,000  Level Cleveland Center
07:44PM 42.2828 -78.3828 81° East 486 559 31,000  Level Cleveland Center
07:45PM 42.3061 -78.1939 80° East 491 565 31,000  Level Cleveland Center
07:46PM 42.3292 -78.0019 81° East 499 574 31,000  Level Cleveland Center
07:47PM 42.3500 -77.8156 81° East 504 580 31,000  Level Cleveland Center
07:48PM 42.3722 -77.6236 81° East 509 586 31,000 -540 Level Cleveland Center
07:51PM 42.4356 -77.0600 81° East 492 566 29,000 -540 Descending Boston Center
07:52PM 42.4553 -76.8814 81° East 473 544 29,000  Level Boston Center
07:53PM 42.4747 -76.6997 82° East 495 570 29,000  Level Boston Center
07:54PM 42.4964 -76.5097 81° East 507 583 29,000  Level Boston Center
07:55PM 42.5153 -76.3219 82° East 516 594 29,000  Level Boston Center
07:56PM 42.5367 -76.1233 82° East 521 600 29,000  Level Boston Center
07:57PM 42.5550 -75.9325 83° East 516 594 29,000 -660 Level Boston Center
07:58PM 42.5733 -75.7392 83° East 521 600 27,700 -1,620 Descending Boston Center
07:59PM 42.5933 -75.5483 82° East 515 593 25,800 -2,220 Descending Boston Center
08:00PM 42.6106 -75.3686 83° East 501 577 23,300 -2,700 Descending Boston Center
08:01PM 42.6275 -75.1972 82° East 480 552 20,500 -2,760 Descending Boston Center
08:02PM 42.6419 -75.0283 83° East 460 529 17,800 -2,580 Descending Boston Center
08:03PM 42.6956 -74.8583 67° East 384 442 14,700 -2,460 Descending Boston Center
08:04PM 42.7250 -74.7492 70° East 397 457 12,900 -2,040 Descending Boston Center
08:05PM 42.7358 -74.6197 83° East 387 445 11,200 -1,080 Descending Boston Center
08:06PM 42.7383 -74.4839 89° East 351 404 10,800 -960 Descending Boston Center
08:07PM 42.7342 -74.3708 93° East 322 371 9,300 -1,680 Descending Boston Center
08:08PM 42.7108 -74.2597 106° East 278 320 7,400 -1,740 Descending Boston Center
08:09PM 42.6875 -74.1631 108° East 265 305 5,800 -1,620 Descending Boston Center
08:10PM 42.6639 -74.0692 109° East 255 293 4,200 -900 Descending Boston Center
08:11PM 42.6547 -73.9814 98° East 235 270 4,000 -480 Descending Boston Center
08:12PM 42.6558 -73.8967 89° East 220 253 3,300 -1,200 Descending Boston Center
08:13PM 42.6733 -73.8208 73° East 192 221 1,700 -1,200 Descending Boston Center
08:14PM 42.7069 -73.8047 19° North 108 124 900 -840 Descending Boston Center
08:19PM 42.7491 -73.8020 107° East  Level Estimated